sensor_id;sensor_type;location;lat;lon;timestamp;P1;durP1;ratioP1;P2;durP2;ratioP2
26303;SDS011;57113;48.680;8.890;2023-03-29T00:00:27;1.63;;;1.30;;
26303;SDS011;57113;48.680;8.890;2023-03-29T00:02:52;2.00;;;1.40;;
26303;SDS011;57113;48.680;8.890;2023-03-29T00:05:20;1.58;;;1.33;;
26303;SDS011;57113;48.680;8.890;2023-03-29T00:07:49;3.00;;;1.65;;
26303;SDS011;57113;48.680;8.890;2023-03-29T00:10:18;3.40;;;1.63;;
26303;SDS011;57113;48.680;8.890;2023-03-29T00:12:45;3.90;;;1.40;;
26303;SDS011;57113;48.680;8.890;2023-03-29T00:15:10;1.90;;;1.15;;
26303;SDS011;57113;48.680;8.890;2023-03-29T00:17:37;2.92;;;1.58;;
26303;SDS011;57113;48.680;8.890;2023-03-29T00:20:03;1.55;;;1.30;;
26303;SDS011;57113;48.680;8.890;2023-03-29T00:22:35;4.03;;;1.50;;
26303;SDS011;57113;48.680;8.890;2023-03-29T00:25:01;1.95;;;1.10;;
26303;SDS011;57113;48.680;8.890;2023-03-29T00:27:28;2.63;;;1.30;;
26303;SDS011;57113;48.680;8.890;2023-03-29T00:29:53;2.17;;;1.40;;
26303;SDS011;57113;48.680;8.890;2023-03-29T00:32:20;2.70;;;1.30;;
26303;SDS011;57113;48.680;8.890;2023-03-29T00:34:47;2.50;;;1.30;;
26303;SDS011;57113;48.680;8.890;2023-03-29T00:37:14;2.03;;;1.45;;
26303;SDS011;57113;48.680;8.890;2023-03-29T00:39:42;3.10;;;1.50;;
26303;SDS011;57113;48.680;8.890;2023-03-29T00:42:12;2.10;;;1.48;;
26303;SDS011;57113;48.680;8.890;2023-03-29T00:47:28;3.22;;;1.55;;
26303;SDS011;57113;48.680;8.890;2023-03-29T00:49:54;2.88;;;1.17;;
26303;SDS011;57113;48.680;8.890;2023-03-29T00:52:25;1.98;;;1.27;;
26303;SDS011;57113;48.680;8.890;2023-03-29T00:54:54;2.08;;;1.33;;
26303;SDS011;57113;48.680;8.890;2023-03-29T00:57:23;1.63;;;1.20;;
26303;SDS011;57113;48.680;8.890;2023-03-29T00:59:51;2.05;;;1.20;;
26303;SDS011;57113;48.680;8.890;2023-03-29T01:02:20;2.58;;;1.60;;
26303;SDS011;57113;48.680;8.890;2023-03-29T01:07:24;1.15;;;1.00;;
26303;SDS011;57113;48.680;8.890;2023-03-29T01:10:05;1.90;;;1.10;;
26303;SDS011;57113;48.680;8.890;2023-03-29T01:12:39;1.60;;;1.33;;
26303;SDS011;57113;48.680;8.890;2023-03-29T01:15:11;3.13;;;1.13;;
26303;SDS011;57113;48.680;8.890;2023-03-29T01:17:39;2.28;;;1.35;;
26303;SDS011;57113;48.680;8.890;2023-03-29T01:20:12;1.85;;;1.20;;
26303;SDS011;57113;48.680;8.890;2023-03-29T01:23:13;2.13;;;1.30;;
26303;SDS011;57113;48.680;8.890;2023-03-29T01:28:30;2.42;;;1.40;;
26303;SDS011;57113;48.680;8.890;2023-03-29T01:31:06;1.35;;;1.10;;
26303;SDS011;57113;48.680;8.890;2023-03-29T01:33:37;2.22;;;1.10;;
26303;SDS011;57113;48.680;8.890;2023-03-29T01:41:05;1.63;;;1.20;;
26303;SDS011;57113;48.680;8.890;2023-03-29T01:43:53;1.45;;;1.00;;
26303;SDS011;57113;48.680;8.890;2023-03-29T01:46:28;2.50;;;1.10;;
26303;SDS011;57113;48.680;8.890;2023-03-29T01:52:16;1.67;;;1.20;;
26303;SDS011;57113;48.680;8.890;2023-03-29T01:54:49;3.00;;;1.42;;
26303;SDS011;57113;48.680;8.890;2023-03-29T01:57:18;3.15;;;1.42;;
26303;SDS011;57113;48.680;8.890;2023-03-29T01:59:48;2.83;;;1.30;;
26303;SDS011;57113;48.680;8.890;2023-03-29T02:02:17;2.05;;;1.17;;
26303;SDS011;57113;48.680;8.890;2023-03-29T02:04:46;2.67;;;1.40;;
26303;SDS011;57113;48.680;8.890;2023-03-29T02:07:18;1.70;;;1.00;;
26303;SDS011;57113;48.680;8.890;2023-03-29T02:09:47;1.75;;;1.20;;
26303;SDS011;57113;48.680;8.890;2023-03-29T02:12:16;2.10;;;1.10;;
26303;SDS011;57113;48.680;8.890;2023-03-29T02:14:42;1.83;;;1.13;;
26303;SDS011;57113;48.680;8.890;2023-03-29T02:17:18;1.70;;;1.30;;
26303;SDS011;57113;48.680;8.890;2023-03-29T02:19:45;1.70;;;1.25;;
26303;SDS011;57113;48.680;8.890;2023-03-29T02:22:18;1.42;;;1.00;;
26303;SDS011;57113;48.680;8.890;2023-03-29T02:27:18;1.98;;;1.30;;
26303;SDS011;57113;48.680;8.890;2023-03-29T02:29:43;1.95;;;1.30;;
26303;SDS011;57113;48.680;8.890;2023-03-29T02:32:12;2.85;;;1.55;;
26303;SDS011;57113;48.680;8.890;2023-03-29T02:34:49;4.37;;;1.53;;
26303;SDS011;57113;48.680;8.890;2023-03-29T02:37:22;1.83;;;1.60;;
26303;SDS011;57113;48.680;8.890;2023-03-29T02:39:54;3.42;;;1.45;;
26303;SDS011;57113;48.680;8.890;2023-03-29T02:42:20;1.58;;;1.20;;
26303;SDS011;57113;48.680;8.890;2023-03-29T02:44:48;2.03;;;1.20;;
26303;SDS011;57113;48.680;8.890;2023-03-29T02:47:25;1.60;;;1.17;;
26303;SDS011;57113;48.680;8.890;2023-03-29T02:49:56;1.45;;;1.13;;
26303;SDS011;57113;48.680;8.890;2023-03-29T02:52:23;4.70;;;1.60;;
26303;SDS011;57113;48.680;8.890;2023-03-29T02:54:53;2.33;;;1.60;;
26303;SDS011;57113;48.680;8.890;2023-03-29T02:57:22;2.05;;;1.50;;
26303;SDS011;57113;48.680;8.890;2023-03-29T02:59:51;2.03;;;1.30;;
26303;SDS011;57113;48.680;8.890;2023-03-29T03:02:17;2.33;;;1.30;;
26303;SDS011;57113;48.680;8.890;2023-03-29T03:04:44;1.70;;;1.15;;
26303;SDS011;57113;48.680;8.890;2023-03-29T03:07:09;2.55;;;1.40;;
26303;SDS011;57113;48.680;8.890;2023-03-29T03:09:35;1.80;;;0.98;;
26303;SDS011;57113;48.680;8.890;2023-03-29T03:12:01;1.67;;;1.10;;
26303;SDS011;57113;48.680;8.890;2023-03-29T03:14:27;2.55;;;1.65;;
26303;SDS011;57113;48.680;8.890;2023-03-29T03:16:53;1.70;;;1.08;;
26303;SDS011;57113;48.680;8.890;2023-03-29T03:19:19;2.13;;;1.20;;
26303;SDS011;57113;48.680;8.890;2023-03-29T03:21:45;2.28;;;1.40;;
26303;SDS011;57113;48.680;8.890;2023-03-29T03:24:11;2.10;;;1.35;;
26303;SDS011;57113;48.680;8.890;2023-03-29T03:26:38;2.63;;;1.27;;
26303;SDS011;57113;48.680;8.890;2023-03-29T03:29:04;2.08;;;1.15;;
26303;SDS011;57113;48.680;8.890;2023-03-29T03:31:30;1.90;;;1.20;;
26303;SDS011;57113;48.680;8.890;2023-03-29T03:33:57;3.08;;;1.30;;
26303;SDS011;57113;48.680;8.890;2023-03-29T03:36:23;1.33;;;1.10;;
26303;SDS011;57113;48.680;8.890;2023-03-29T03:38:50;2.40;;;1.30;;
26303;SDS011;57113;48.680;8.890;2023-03-29T03:41:17;2.35;;;0.90;;
26303;SDS011;57113;48.680;8.890;2023-03-29T03:43:42;1.30;;;1.00;;
26303;SDS011;57113;48.680;8.890;2023-03-29T03:46:12;1.58;;;1.20;;
26303;SDS011;57113;48.680;8.890;2023-03-29T03:48:41;1.65;;;1.08;;
26303;SDS011;57113;48.680;8.890;2023-03-29T03:51:07;1.10;;;1.00;;
26303;SDS011;57113;48.680;8.890;2023-03-29T03:53:34;2.20;;;1.30;;
26303;SDS011;57113;48.680;8.890;2023-03-29T03:55:59;1.63;;;1.20;;
26303;SDS011;57113;48.680;8.890;2023-03-29T03:58:26;1.52;;;1.30;;
26303;SDS011;57113;48.680;8.890;2023-03-29T04:00:53;1.45;;;1.10;;
26303;SDS011;57113;48.680;8.890;2023-03-29T04:03:18;1.75;;;1.20;;
26303;SDS011;57113;48.680;8.890;2023-03-29T04:05:45;2.72;;;1.17;;
26303;SDS011;57113;48.680;8.890;2023-03-29T04:08:11;3.20;;;1.23;;
26303;SDS011;57113;48.680;8.890;2023-03-29T04:10:38;2.10;;;1.17;;
26303;SDS011;57113;48.680;8.890;2023-03-29T04:13:03;2.85;;;1.40;;
26303;SDS011;57113;48.680;8.890;2023-03-29T04:15:30;1.27;;;1.10;;
26303;SDS011;57113;48.680;8.890;2023-03-29T04:17:57;1.67;;;0.95;;
26303;SDS011;57113;48.680;8.890;2023-03-29T04:20:23;1.77;;;1.20;;
26303;SDS011;57113;48.680;8.890;2023-03-29T04:22:50;1.83;;;0.90;;
26303;SDS011;57113;48.680;8.890;2023-03-29T04:25:16;1.45;;;1.08;;
26303;SDS011;57113;48.680;8.890;2023-03-29T04:27:42;1.50;;;1.00;;
26303;SDS011;57113;48.680;8.890;2023-03-29T04:30:08;2.08;;;1.27;;
26303;SDS011;57113;48.680;8.890;2023-03-29T04:32:35;1.60;;;0.80;;
26303;SDS011;57113;48.680;8.890;2023-03-29T04:35:01;1.42;;;1.02;;
26303;SDS011;57113;48.680;8.890;2023-03-29T04:37:28;1.67;;;1.00;;
26303;SDS011;57113;48.680;8.890;2023-03-29T04:39:55;1.85;;;1.20;;
26303;SDS011;57113;48.680;8.890;2023-03-29T04:42:24;1.90;;;1.00;;
26303;SDS011;57113;48.680;8.890;2023-03-29T04:44:50;1.02;;;0.90;;
26303;SDS011;57113;48.680;8.890;2023-03-29T04:47:17;1.77;;;1.20;;
26303;SDS011;57113;48.680;8.890;2023-03-29T04:49:43;3.72;;;1.10;;
26303;SDS011;57113;48.680;8.890;2023-03-29T04:52:09;3.03;;;1.40;;
26303;SDS011;57113;48.680;8.890;2023-03-29T04:54:35;1.92;;;1.20;;
26303;SDS011;57113;48.680;8.890;2023-03-29T04:57:02;2.30;;;1.30;;
26303;SDS011;57113;48.680;8.890;2023-03-29T04:59:28;3.67;;;1.20;;
26303;SDS011;57113;48.680;8.890;2023-03-29T05:01:54;1.85;;;1.20;;
26303;SDS011;57113;48.680;8.890;2023-03-29T05:04:20;1.65;;;1.00;;
26303;SDS011;57113;48.680;8.890;2023-03-29T05:06:46;2.30;;;1.50;;
26303;SDS011;57113;48.680;8.890;2023-03-29T05:09:13;1.80;;;1.10;;
26303;SDS011;57113;48.680;8.890;2023-03-29T05:11:38;1.88;;;1.27;;
26303;SDS011;57113;48.680;8.890;2023-03-29T05:14:04;1.58;;;1.15;;
26303;SDS011;57113;48.680;8.890;2023-03-29T05:16:31;1.50;;;1.20;;
26303;SDS011;57113;48.680;8.890;2023-03-29T05:18:58;2.13;;;0.90;;
26303;SDS011;57113;48.680;8.890;2023-03-29T05:21:25;1.52;;;1.20;;
26303;SDS011;57113;48.680;8.890;2023-03-29T05:23:52;1.10;;;0.95;;
26303;SDS011;57113;48.680;8.890;2023-03-29T05:26:18;2.22;;;1.42;;
26303;SDS011;57113;48.680;8.890;2023-03-29T05:28:46;2.63;;;1.35;;
26303;SDS011;57113;48.680;8.890;2023-03-29T05:31:12;1.65;;;1.20;;
26303;SDS011;57113;48.680;8.890;2023-03-29T05:33:38;2.90;;;1.13;;
26303;SDS011;57113;48.680;8.890;2023-03-29T05:36:05;2.40;;;1.27;;
26303;SDS011;57113;48.680;8.890;2023-03-29T05:38:32;1.30;;;1.00;;
26303;SDS011;57113;48.680;8.890;2023-03-29T05:40:58;2.45;;;1.30;;
26303;SDS011;57113;48.680;8.890;2023-03-29T05:43:24;2.72;;;1.50;;
26303;SDS011;57113;48.680;8.890;2023-03-29T05:45:51;1.92;;;1.20;;
26303;SDS011;57113;48.680;8.890;2023-03-29T05:48:18;3.10;;;1.35;;
26303;SDS011;57113;48.680;8.890;2023-03-29T05:50:47;2.20;;;1.20;;
26303;SDS011;57113;48.680;8.890;2023-03-29T05:53:15;1.88;;;1.40;;
26303;SDS011;57113;48.680;8.890;2023-03-29T05:55:41;4.05;;;1.95;;
26303;SDS011;57113;48.680;8.890;2023-03-29T05:58:07;1.98;;;1.27;;
26303;SDS011;57113;48.680;8.890;2023-03-29T06:00:34;1.58;;;1.23;;
26303;SDS011;57113;48.680;8.890;2023-03-29T06:03:02;1.67;;;1.20;;
26303;SDS011;57113;48.680;8.890;2023-03-29T06:05:27;2.20;;;1.60;;
26303;SDS011;57113;48.680;8.890;2023-03-29T06:07:53;3.47;;;1.50;;
26303;SDS011;57113;48.680;8.890;2023-03-29T06:10:20;1.90;;;1.38;;
26303;SDS011;57113;48.680;8.890;2023-03-29T06:12:47;2.03;;;1.48;;
26303;SDS011;57113;48.680;8.890;2023-03-29T06:15:14;4.32;;;1.33;;
26303;SDS011;57113;48.680;8.890;2023-03-29T06:17:41;2.05;;;1.30;;
26303;SDS011;57113;48.680;8.890;2023-03-29T06:20:08;1.92;;;1.30;;
26303;SDS011;57113;48.680;8.890;2023-03-29T06:22:39;2.10;;;1.42;;
26303;SDS011;57113;48.680;8.890;2023-03-29T06:25:06;2.40;;;1.60;;
26303;SDS011;57113;48.680;8.890;2023-03-29T06:27:35;2.63;;;1.40;;
26303;SDS011;57113;48.680;8.890;2023-03-29T06:30:01;2.40;;;1.60;;
26303;SDS011;57113;48.680;8.890;2023-03-29T06:32:28;2.60;;;1.13;;
26303;SDS011;57113;48.680;8.890;2023-03-29T06:34:53;2.03;;;1.33;;
26303;SDS011;57113;48.680;8.890;2023-03-29T06:37:20;4.38;;;1.45;;
26303;SDS011;57113;48.680;8.890;2023-03-29T06:39:47;2.60;;;1.27;;
26303;SDS011;57113;48.680;8.890;2023-03-29T06:42:17;2.38;;;1.65;;
26303;SDS011;57113;48.680;8.890;2023-03-29T06:44:43;2.88;;;1.63;;
26303;SDS011;57113;48.680;8.890;2023-03-29T06:47:09;2.55;;;1.73;;
26303;SDS011;57113;48.680;8.890;2023-03-29T06:49:35;2.90;;;1.52;;
26303;SDS011;57113;48.680;8.890;2023-03-29T06:52:01;3.22;;;1.55;;
26303;SDS011;57113;48.680;8.890;2023-03-29T06:54:26;2.47;;;1.40;;
26303;SDS011;57113;48.680;8.890;2023-03-29T06:56:52;2.47;;;1.50;;
26303;SDS011;57113;48.680;8.890;2023-03-29T06:59:17;2.40;;;1.58;;
26303;SDS011;57113;48.680;8.890;2023-03-29T07:01:43;1.50;;;1.20;;
26303;SDS011;57113;48.680;8.890;2023-03-29T07:04:09;2.28;;;1.50;;
26303;SDS011;57113;48.680;8.890;2023-03-29T07:06:35;2.10;;;1.30;;
26303;SDS011;57113;48.680;8.890;2023-03-29T07:09:03;1.92;;;1.50;;
26303;SDS011;57113;48.680;8.890;2023-03-29T07:11:31;2.47;;;1.58;;
26303;SDS011;57113;48.680;8.890;2023-03-29T07:14:00;2.30;;;1.20;;
26303;SDS011;57113;48.680;8.890;2023-03-29T07:16:27;2.10;;;1.40;;
26303;SDS011;57113;48.680;8.890;2023-03-29T07:18:53;1.88;;;1.40;;
26303;SDS011;57113;48.680;8.890;2023-03-29T07:21:19;2.92;;;1.60;;
26303;SDS011;57113;48.680;8.890;2023-03-29T07:23:45;2.22;;;1.60;;
26303;SDS011;57113;48.680;8.890;2023-03-29T07:26:10;1.98;;;1.40;;
26303;SDS011;57113;48.680;8.890;2023-03-29T07:28:36;2.25;;;1.33;;
26303;SDS011;57113;48.680;8.890;2023-03-29T07:31:07;1.67;;;1.20;;
26303;SDS011;57113;48.680;8.890;2023-03-29T07:33:35;2.08;;;1.48;;
26303;SDS011;57113;48.680;8.890;2023-03-29T07:36:01;3.50;;;1.60;;
26303;SDS011;57113;48.680;8.890;2023-03-29T07:38:29;1.90;;;1.48;;
26303;SDS011;57113;48.680;8.890;2023-03-29T07:40:55;2.15;;;1.30;;
26303;SDS011;57113;48.680;8.890;2023-03-29T07:43:21;2.17;;;1.02;;
26303;SDS011;57113;48.680;8.890;2023-03-29T07:45:48;3.10;;;1.50;;
26303;SDS011;57113;48.680;8.890;2023-03-29T07:48:15;1.50;;;1.20;;
26303;SDS011;57113;48.680;8.890;2023-03-29T07:50:42;1.52;;;1.20;;
26303;SDS011;57113;48.680;8.890;2023-03-29T07:53:08;2.35;;;1.42;;
26303;SDS011;57113;48.680;8.890;2023-03-29T07:55:34;3.00;;;1.55;;
26303;SDS011;57113;48.680;8.890;2023-03-29T07:57:59;3.08;;;1.50;;
26303;SDS011;57113;48.680;8.890;2023-03-29T08:00:25;3.47;;;1.60;;
26303;SDS011;57113;48.680;8.890;2023-03-29T08:02:51;2.20;;;1.52;;
26303;SDS011;57113;48.680;8.890;2023-03-29T08:05:18;3.30;;;1.42;;
26303;SDS011;57113;48.680;8.890;2023-03-29T08:07:46;3.20;;;1.33;;
26303;SDS011;57113;48.680;8.890;2023-03-29T08:10:14;1.88;;;1.20;;
26303;SDS011;57113;48.680;8.890;2023-03-29T08:12:42;1.85;;;1.50;;
26303;SDS011;57113;48.680;8.890;2023-03-29T08:15:09;2.58;;;1.50;;
26303;SDS011;57113;48.680;8.890;2023-03-29T08:17:35;2.00;;;1.40;;
26303;SDS011;57113;48.680;8.890;2023-03-29T08:20:02;1.45;;;1.25;;
26303;SDS011;57113;48.680;8.890;2023-03-29T08:22:30;1.63;;;1.23;;
26303;SDS011;57113;48.680;8.890;2023-03-29T08:24:56;2.42;;;1.40;;
26303;SDS011;57113;48.680;8.890;2023-03-29T08:27:22;1.65;;;1.23;;
26303;SDS011;57113;48.680;8.890;2023-03-29T08:29:48;1.85;;;1.20;;
26303;SDS011;57113;48.680;8.890;2023-03-29T08:32:14;2.47;;;1.30;;
26303;SDS011;57113;48.680;8.890;2023-03-29T08:34:39;2.75;;;1.42;;
26303;SDS011;57113;48.680;8.890;2023-03-29T08:37:05;2.33;;;1.17;;
26303;SDS011;57113;48.680;8.890;2023-03-29T08:39:32;2.78;;;1.30;;
26303;SDS011;57113;48.680;8.890;2023-03-29T08:50:20;3.40;;;1.60;;
26303;SDS011;57113;48.680;8.890;2023-03-29T08:52:56;4.75;;;1.40;;
26303;SDS011;57113;48.680;8.890;2023-03-29T08:55:44;4.05;;;1.60;;
26303;SDS011;57113;48.680;8.890;2023-03-29T08:58:13;2.67;;;1.40;;
26303;SDS011;57113;48.680;8.890;2023-03-29T09:00:49;3.20;;;1.48;;
26303;SDS011;57113;48.680;8.890;2023-03-29T09:03:24;3.55;;;1.50;;
26303;SDS011;57113;48.680;8.890;2023-03-29T09:06:07;2.25;;;1.40;;
26303;SDS011;57113;48.680;8.890;2023-03-29T09:08:44;5.15;;;1.60;;
26303;SDS011;57113;48.680;8.890;2023-03-29T09:11:21;2.75;;;1.38;;
26303;SDS011;57113;48.680;8.890;2023-03-29T09:19:05;5.15;;;1.73;;
26303;SDS011;57113;48.680;8.890;2023-03-29T09:21:44;4.43;;;1.50;;
26303;SDS011;57113;48.680;8.890;2023-03-29T09:27:07;2.67;;;1.38;;
26303;SDS011;57113;48.680;8.890;2023-03-29T09:32:21;4.57;;;1.40;;
26303;SDS011;57113;48.680;8.890;2023-03-29T09:34:58;4.50;;;1.48;;
26303;SDS011;57113;48.680;8.890;2023-03-29T09:39:56;7.55;;;2.40;;
26303;SDS011;57113;48.680;8.890;2023-03-29T09:42:23;2.75;;;1.38;;
26303;SDS011;57113;48.680;8.890;2023-03-29T09:44:53;4.82;;;1.40;;
26303;SDS011;57113;48.680;8.890;2023-03-29T09:47:27;3.33;;;1.20;;
26303;SDS011;57113;48.680;8.890;2023-03-29T09:50:09;2.25;;;1.52;;
26303;SDS011;57113;48.680;8.890;2023-03-29T09:52:44;2.63;;;1.27;;
26303;SDS011;57113;48.680;8.890;2023-03-29T09:55:13;1.58;;;1.13;;
26303;SDS011;57113;48.680;8.890;2023-03-29T09:57:40;2.60;;;1.48;;
26303;SDS011;57113;48.680;8.890;2023-03-29T10:00:07;2.88;;;1.33;;
26303;SDS011;57113;48.680;8.890;2023-03-29T10:02:35;3.25;;;1.27;;
26303;SDS011;57113;48.680;8.890;2023-03-29T10:05:03;5.28;;;1.40;;
26303;SDS011;57113;48.680;8.890;2023-03-29T10:07:40;1.80;;;1.27;;
26303;SDS011;57113;48.680;8.890;2023-03-29T10:10:21;4.38;;;1.35;;
26303;SDS011;57113;48.680;8.890;2023-03-29T10:12:50;2.03;;;1.05;;
26303;SDS011;57113;48.680;8.890;2023-03-29T10:15:18;2.45;;;1.15;;
26303;SDS011;57113;48.680;8.890;2023-03-29T10:17:44;1.67;;;1.25;;
26303;SDS011;57113;48.680;8.890;2023-03-29T10:20:12;1.40;;;0.75;;
26303;SDS011;57113;48.680;8.890;2023-03-29T10:22:47;1.98;;;1.02;;
26303;SDS011;57113;48.680;8.890;2023-03-29T10:25:18;2.13;;;1.30;;
26303;SDS011;57113;48.680;8.890;2023-03-29T10:27:44;2.63;;;1.17;;
26303;SDS011;57113;48.680;8.890;2023-03-29T10:30:16;2.30;;;1.20;;
26303;SDS011;57113;48.680;8.890;2023-03-29T10:32:45;2.55;;;1.10;;
26303;SDS011;57113;48.680;8.890;2023-03-29T10:35:32;2.50;;;1.08;;
26303;SDS011;57113;48.680;8.890;2023-03-29T10:38:04;3.42;;;1.10;;
26303;SDS011;57113;48.680;8.890;2023-03-29T10:40:40;2.25;;;1.20;;
26303;SDS011;57113;48.680;8.890;2023-03-29T10:45:43;2.10;;;1.10;;
26303;SDS011;57113;48.680;8.890;2023-03-29T10:48:14;1.67;;;0.90;;
26303;SDS011;57113;48.680;8.890;2023-03-29T10:50:41;2.45;;;1.30;;
26303;SDS011;57113;48.680;8.890;2023-03-29T10:53:13;1.30;;;1.02;;
26303;SDS011;57113;48.680;8.890;2023-03-29T11:07:08;1.77;;;1.00;;
26303;SDS011;57113;48.680;8.890;2023-03-29T11:25:59;1.13;;;0.80;;
26303;SDS011;57113;48.680;8.890;2023-03-29T11:28:40;2.00;;;0.93;;
26303;SDS011;57113;48.680;8.890;2023-03-29T11:37:34;1.52;;;0.93;;
26303;SDS011;57113;48.680;8.890;2023-03-29T11:42:27;2.17;;;1.00;;
26303;SDS011;57113;48.680;8.890;2023-03-29T11:44:57;1.88;;;0.90;;
26303;SDS011;57113;48.680;8.890;2023-03-29T11:47:26;1.70;;;0.90;;
26303;SDS011;57113;48.680;8.890;2023-03-29T11:50:04;2.33;;;1.02;;
26303;SDS011;57113;48.680;8.890;2023-03-29T11:52:59;1.58;;;1.10;;
26303;SDS011;57113;48.680;8.890;2023-03-29T11:55:33;2.58;;;1.27;;
26303;SDS011;57113;48.680;8.890;2023-03-29T12:00:51;2.80;;;1.20;;
26303;SDS011;57113;48.680;8.890;2023-03-29T12:03:32;2.75;;;1.20;;
26303;SDS011;57113;48.680;8.890;2023-03-29T12:06:22;2.90;;;0.90;;
26303;SDS011;57113;48.680;8.890;2023-03-29T12:08:52;2.20;;;1.10;;
26303;SDS011;57113;48.680;8.890;2023-03-29T12:11:44;2.72;;;1.10;;
26303;SDS011;57113;48.680;8.890;2023-03-29T12:14:18;2.03;;;0.95;;
26303;SDS011;57113;48.680;8.890;2023-03-29T12:16:53;4.00;;;1.33;;
26303;SDS011;57113;48.680;8.890;2023-03-29T12:19:35;2.35;;;1.00;;
26303;SDS011;57113;48.680;8.890;2023-03-29T12:22:07;2.25;;;1.00;;
26303;SDS011;57113;48.680;8.890;2023-03-29T12:24:33;2.22;;;0.80;;
26303;SDS011;57113;48.680;8.890;2023-03-29T12:27:06;2.10;;;1.10;;
26303;SDS011;57113;48.680;8.890;2023-03-29T12:35:33;1.85;;;0.88;;
26303;SDS011;57113;48.680;8.890;2023-03-29T12:38:08;1.90;;;1.00;;
26303;SDS011;57113;48.680;8.890;2023-03-29T12:40:43;2.15;;;1.15;;
26303;SDS011;57113;48.680;8.890;2023-03-29T12:43:14;2.40;;;1.00;;
26303;SDS011;57113;48.680;8.890;2023-03-29T12:45:51;3.15;;;1.08;;
26303;SDS011;57113;48.680;8.890;2023-03-29T12:48:23;1.80;;;0.90;;
26303;SDS011;57113;48.680;8.890;2023-03-29T12:50:53;2.28;;;1.00;;
26303;SDS011;57113;48.680;8.890;2023-03-29T12:53:32;2.33;;;1.10;;
26303;SDS011;57113;48.680;8.890;2023-03-29T13:06:28;1.23;;;0.80;;
26303;SDS011;57113;48.680;8.890;2023-03-29T13:09:01;1.80;;;0.88;;
26303;SDS011;57113;48.680;8.890;2023-03-29T13:11:53;2.53;;;1.10;;
26303;SDS011;57113;48.680;8.890;2023-03-29T13:14:31;2.00;;;0.80;;
26303;SDS011;57113;48.680;8.890;2023-03-29T13:17:04;1.77;;;1.00;;
26303;SDS011;57113;48.680;8.890;2023-03-29T13:19:52;2.78;;;0.98;;
26303;SDS011;57113;48.680;8.890;2023-03-29T13:25:19;2.22;;;1.02;;
26303;SDS011;57113;48.680;8.890;2023-03-29T13:36:13;2.15;;;0.93;;
26303;SDS011;57113;48.680;8.890;2023-03-29T13:38:54;1.80;;;0.80;;
26303;SDS011;57113;48.680;8.890;2023-03-29T13:44:16;1.85;;;1.10;;
26303;SDS011;57113;48.680;8.890;2023-03-29T13:46:48;3.20;;;1.10;;
26303;SDS011;57113;48.680;8.890;2023-03-29T13:49:25;1.83;;;0.95;;
26303;SDS011;57113;48.680;8.890;2023-03-29T13:52:03;1.65;;;0.85;;
26303;SDS011;57113;48.680;8.890;2023-03-29T13:57:29;1.08;;;0.80;;
26303;SDS011;57113;48.680;8.890;2023-03-29T14:00:05;2.40;;;1.30;;
26303;SDS011;57113;48.680;8.890;2023-03-29T14:02:56;1.45;;;0.90;;
26303;SDS011;57113;48.680;8.890;2023-03-29T14:05:35;2.58;;;1.02;;
26303;SDS011;57113;48.680;8.890;2023-03-29T14:08:08;3.13;;;1.25;;
26303;SDS011;57113;48.680;8.890;2023-03-29T14:10:54;2.30;;;1.00;;
26303;SDS011;57113;48.680;8.890;2023-03-29T14:13:23;1.10;;;0.70;;
26303;SDS011;57113;48.680;8.890;2023-03-29T14:15:49;1.42;;;0.90;;
26303;SDS011;57113;48.680;8.890;2023-03-29T14:18:26;2.22;;;0.98;;
26303;SDS011;57113;48.680;8.890;2023-03-29T14:20:57;2.33;;;1.00;;
26303;SDS011;57113;48.680;8.890;2023-03-29T14:23:29;1.35;;;1.00;;
26303;SDS011;57113;48.680;8.890;2023-03-29T14:26:31;1.52;;;0.90;;
26303;SDS011;57113;48.680;8.890;2023-03-29T14:28:54;1.75;;;0.85;;
26303;SDS011;57113;48.680;8.890;2023-03-29T14:31:25;1.42;;;1.00;;
26303;SDS011;57113;48.680;8.890;2023-03-29T14:34:02;1.73;;;0.80;;
26303;SDS011;57113;48.680;8.890;2023-03-29T14:36:30;2.17;;;1.00;;
26303;SDS011;57113;48.680;8.890;2023-03-29T14:38:59;1.50;;;0.85;;
26303;SDS011;57113;48.680;8.890;2023-03-29T14:41:33;2.42;;;1.02;;
26303;SDS011;57113;48.680;8.890;2023-03-29T14:44:00;1.60;;;0.88;;
26303;SDS011;57113;48.680;8.890;2023-03-29T14:46:31;2.33;;;1.00;;
26303;SDS011;57113;48.680;8.890;2023-03-29T14:48:59;1.50;;;0.98;;
26303;SDS011;57113;48.680;8.890;2023-03-29T14:51:26;2.00;;;0.98;;
26303;SDS011;57113;48.680;8.890;2023-03-29T14:53:54;1.52;;;1.00;;
26303;SDS011;57113;48.680;8.890;2023-03-29T14:56:26;2.30;;;1.00;;
26303;SDS011;57113;48.680;8.890;2023-03-29T14:58:55;2.15;;;0.93;;
26303;SDS011;57113;48.680;8.890;2023-03-29T15:01:22;1.67;;;0.95;;
26303;SDS011;57113;48.680;8.890;2023-03-29T15:04:00;1.45;;;0.77;;
26303;SDS011;57113;48.680;8.890;2023-03-29T15:06:28;2.33;;;1.05;;
26303;SDS011;57113;48.680;8.890;2023-03-29T15:08:56;2.60;;;1.00;;
26303;SDS011;57113;48.680;8.890;2023-03-29T15:11:25;1.38;;;0.85;;
26303;SDS011;57113;48.680;8.890;2023-03-29T15:14:08;2.63;;;1.00;;
26303;SDS011;57113;48.680;8.890;2023-03-29T15:16:40;2.50;;;1.00;;
26303;SDS011;57113;48.680;8.890;2023-03-29T15:19:17;2.13;;;0.90;;
26303;SDS011;57113;48.680;8.890;2023-03-29T15:21:49;3.80;;;0.98;;
26303;SDS011;57113;48.680;8.890;2023-03-29T15:24:22;1.40;;;0.95;;
26303;SDS011;57113;48.680;8.890;2023-03-29T15:26:59;1.40;;;0.90;;
26303;SDS011;57113;48.680;8.890;2023-03-29T15:29:37;1.40;;;1.00;;
26303;SDS011;57113;48.680;8.890;2023-03-29T15:32:08;2.58;;;1.00;;
26303;SDS011;57113;48.680;8.890;2023-03-29T15:34:43;1.48;;;0.80;;
26303;SDS011;57113;48.680;8.890;2023-03-29T15:37:10;4.80;;;1.10;;
26303;SDS011;57113;48.680;8.890;2023-03-29T15:39:37;1.73;;;0.90;;
26303;SDS011;57113;48.680;8.890;2023-03-29T15:42:07;2.10;;;0.95;;
26303;SDS011;57113;48.680;8.890;2023-03-29T15:44:33;1.77;;;1.02;;
26303;SDS011;57113;48.680;8.890;2023-03-29T15:47:01;7.18;;;2.75;;
26303;SDS011;57113;48.680;8.890;2023-03-29T15:49:27;7.80;;;2.00;;
26303;SDS011;57113;48.680;8.890;2023-03-29T15:51:53;6.07;;;1.50;;
26303;SDS011;57113;48.680;8.890;2023-03-29T15:54:19;5.28;;;1.90;;
26303;SDS011;57113;48.680;8.890;2023-03-29T15:56:47;5.25;;;1.80;;
26303;SDS011;57113;48.680;8.890;2023-03-29T15:59:34;5.78;;;1.80;;
26303;SDS011;57113;48.680;8.890;2023-03-29T16:02:00;6.95;;;1.60;;
26303;SDS011;57113;48.680;8.890;2023-03-29T16:04:26;9.13;;;1.92;;
26303;SDS011;57113;48.680;8.890;2023-03-29T16:06:52;6.70;;;2.03;;
26303;SDS011;57113;48.680;8.890;2023-03-29T16:09:19;5.50;;;1.67;;
26303;SDS011;57113;48.680;8.890;2023-03-29T16:11:46;4.28;;;1.67;;
26303;SDS011;57113;48.680;8.890;2023-03-29T16:14:45;5.35;;;1.40;;
26303;SDS011;57113;48.680;8.890;2023-03-29T16:17:04;4.53;;;1.58;;
26303;SDS011;57113;48.680;8.890;2023-03-29T16:19:30;3.05;;;1.58;;
26303;SDS011;57113;48.680;8.890;2023-03-29T16:21:58;2.80;;;1.40;;
26303;SDS011;57113;48.680;8.890;2023-03-29T16:24:26;4.13;;;2.03;;
26303;SDS011;57113;48.680;8.890;2023-03-29T16:26:54;5.35;;;1.75;;
26303;SDS011;57113;48.680;8.890;2023-03-29T16:29:21;4.15;;;1.63;;
26303;SDS011;57113;48.680;8.890;2023-03-29T16:31:47;3.40;;;1.60;;
26303;SDS011;57113;48.680;8.890;2023-03-29T16:34:14;4.47;;;1.77;;
26303;SDS011;57113;48.680;8.890;2023-03-29T16:36:42;2.92;;;1.60;;
26303;SDS011;57113;48.680;8.890;2023-03-29T16:39:09;3.92;;;1.60;;
26303;SDS011;57113;48.680;8.890;2023-03-29T16:41:36;5.75;;;2.00;;
26303;SDS011;57113;48.680;8.890;2023-03-29T16:44:02;4.00;;;1.60;;
26303;SDS011;57113;48.680;8.890;2023-03-29T16:46:28;3.10;;;1.58;;
26303;SDS011;57113;48.680;8.890;2023-03-29T16:48:54;4.25;;;1.50;;
26303;SDS011;57113;48.680;8.890;2023-03-29T16:51:21;2.97;;;1.50;;
26303;SDS011;57113;48.680;8.890;2023-03-29T16:53:48;3.10;;;1.70;;
26303;SDS011;57113;48.680;8.890;2023-03-29T16:56:15;2.47;;;1.50;;
26303;SDS011;57113;48.680;8.890;2023-03-29T16:58:42;2.58;;;1.50;;